createdAt,value
2023-04-08T00:00:32.525Z,19.91
2023-04-08T00:03:04.694Z,19.91
2023-04-08T00:05:37.212Z,19.90
2023-04-08T00:08:08.091Z,19.87
2023-04-08T00:10:38.609Z,19.87
2023-04-08T00:13:08.684Z,19.85
2023-04-08T00:15:39.260Z,19.84
2023-04-08T00:18:09.986Z,19.83
2023-04-08T00:20:44.948Z,19.83
2023-04-08T00:23:15.962Z,19.81
2023-04-08T00:25:46.954Z,19.78
2023-04-08T00:28:18.190Z,19.74
2023-04-08T00:30:49.562Z,19.69
2023-04-08T00:33:22.940Z,19.70
2023-04-08T00:35:53.798Z,19.63
2023-04-08T00:38:27.485Z,19.59
2023-04-08T00:41:02.452Z,19.57
2023-04-08T00:43:33.772Z,19.59
2023-04-08T00:46:04.337Z,19.50
2023-04-08T00:48:34.611Z,19.47
2023-04-08T00:53:58.026Z,19.45
2023-04-08T00:56:33.598Z,19.37
2023-04-08T00:59:08.489Z,19.34
2023-04-08T01:01:45.414Z,19.33
2023-04-08T01:07:47.125Z,19.34
2023-04-08T01:10:24.875Z,19.36
2023-04-08T01:13:01.438Z,19.36
2023-04-08T01:15:39.471Z,19.36
2023-04-08T01:18:17.186Z,19.40
2023-04-08T01:20:48.712Z,19.32
2023-04-08T01:23:25.637Z,19.29
2023-04-08T01:25:58.994Z,19.33
2023-04-08T01:28:33.568Z,19.36
2023-04-08T01:31:05.900Z,19.40
2023-04-08T01:33:38.670Z,19.45
2023-04-08T01:36:13.429Z,19.50
2023-04-08T01:38:45.117Z,19.46
2023-04-08T01:41:19.923Z,19.50
2023-04-08T01:43:52.958Z,19.53
2023-04-08T01:46:25.510Z,19.52
2023-04-08T01:49:08.395Z,19.54
2023-04-08T01:51:39.494Z,19.66
2023-04-08T01:54:11.545Z,19.52
2023-04-08T01:56:47.508Z,19.56
2023-04-08T01:59:19.964Z,19.56
2023-04-08T02:01:52.299Z,19.56
2023-04-08T02:04:29.818Z,19.62
2023-04-08T02:07:01.941Z,19.60
2023-04-08T02:09:33.375Z,19.60
2023-04-08T02:14:35.830Z,19.63
2023-04-08T02:17:45.238Z,19.71
2023-04-08T02:20:22.005Z,19.69
2023-04-08T02:23:17.275Z,19.69
2023-04-08T02:25:49.034Z,19.63
2023-04-08T02:28:23.338Z,19.66
2023-04-08T02:31:12.332Z,19.64
2023-04-08T02:37:36.691Z,19.59
2023-04-08T02:40:25.049Z,19.56
2023-04-08T02:43:02.033Z,19.57
2023-04-08T02:45:43.532Z,19.56
2023-04-08T02:48:14.076Z,19.53
2023-04-08T02:50:44.454Z,19.56
2023-04-08T02:53:15.070Z,19.53
2023-04-08T02:55:46.227Z,19.47
2023-04-08T02:58:16.948Z,19.49
2023-04-08T03:00:49.619Z,19.50
2023-04-08T03:06:17.530Z,19.52
2023-04-08T03:08:52.839Z,19.54
2023-04-08T03:11:25.428Z,19.62
2023-04-08T03:13:57.787Z,19.62
2023-04-08T03:16:32.309Z,19.63
2023-04-08T03:19:07.489Z,19.66
2023-04-08T03:21:37.734Z,19.66
2023-04-08T03:24:08.507Z,19.69
2023-04-08T03:26:38.928Z,19.64
2023-04-08T03:29:10.546Z,19.71
2023-04-08T03:31:44.019Z,19.70
2023-04-08T03:34:14.236Z,19.71
2023-04-08T03:36:45.022Z,19.73
2023-04-08T03:39:16.239Z,19.67
2023-04-08T03:41:50.003Z,19.73
2023-04-08T03:44:21.327Z,19.66
2023-04-08T03:46:52.183Z,19.59
2023-04-08T03:49:44.400Z,19.63
2023-04-08T03:52:15.542Z,19.57
2023-04-08T03:54:45.854Z,19.57
2023-04-08T03:57:19.411Z,19.57
2023-04-08T03:59:50.800Z,19.56
2023-04-08T04:02:21.791Z,19.52
2023-04-08T04:04:53.588Z,19.54
2023-04-08T04:07:24.218Z,19.49
2023-04-08T04:10:00.580Z,19.46
2023-04-08T04:12:30.813Z,19.37
2023-04-08T04:15:03.108Z,19.39
2023-04-08T04:17:59.647Z,19.46
2023-04-08T04:20:36.964Z,19.42
2023-04-08T04:23:07.593Z,19.34
2023-04-08T04:25:43.952Z,19.34
2023-04-08T04:28:14.385Z,19.30
2023-04-08T04:30:49.207Z,19.30
2023-04-08T04:33:23.282Z,19.27
2023-04-08T04:35:54.431Z,19.20
2023-04-08T04:38:29.393Z,19.18
2023-04-08T04:41:04.039Z,19.18
2023-04-08T04:43:35.248Z,19.18
2023-04-08T04:46:15.644Z,19.13
2023-04-08T04:48:46.003Z,19.06
2023-04-08T04:51:17.813Z,19.03
2023-04-08T04:53:48.876Z,19.09
2023-04-08T04:56:28.243Z,19.10
2023-04-08T04:59:00.735Z,19.10
2023-04-08T05:01:35.818Z,19.09
2023-04-08T05:04:07.198Z,19.08
2023-04-08T05:06:38.868Z,19.09
2023-04-08T05:09:10.037Z,19.08
2023-04-08T05:11:41.309Z,19.15
2023-04-08T05:14:13.451Z,19.16
2023-04-08T05:16:57.526Z,19.13
2023-04-08T05:19:36.330Z,19.10
2023-04-08T05:22:08.555Z,19.12
2023-04-08T05:24:39.660Z,19.12
2023-04-08T05:27:09.643Z,19.15
2023-04-08T05:29:39.871Z,19.16
2023-04-08T05:32:10.613Z,19.19
2023-04-08T05:34:41.541Z,19.16
2023-04-08T05:37:13.098Z,19.18
2023-04-08T05:39:44.767Z,19.20
2023-04-08T05:42:16.177Z,19.19
2023-04-08T05:44:46.368Z,19.20
2023-04-08T05:47:16.363Z,19.20
2023-04-08T05:49:46.576Z,19.23
2023-04-08T05:52:17.210Z,19.23
2023-04-08T05:54:49.432Z,19.23
2023-04-08T05:57:19.650Z,19.27
2023-04-08T05:59:50.877Z,19.26
2023-04-08T06:02:21.980Z,19.30
2023-04-08T06:04:53.284Z,19.29
2023-04-08T06:07:23.645Z,19.32
2023-04-08T06:09:53.749Z,19.33
2023-04-08T06:12:24.213Z,19.39
2023-04-08T06:14:58.871Z,19.34
2023-04-08T06:17:29.285Z,19.33
2023-04-08T06:20:00.645Z,19.36
2023-04-08T06:22:32.320Z,19.37
2023-04-08T06:25:03.764Z,19.37
2023-04-08T06:27:34.173Z,19.40
2023-04-08T06:30:04.196Z,19.42
2023-04-08T06:32:34.373Z,19.49
2023-04-08T06:35:04.579Z,19.56
2023-04-08T06:37:35.626Z,19.57
2023-04-08T06:40:06.831Z,19.62
2023-04-08T06:42:39.569Z,19.57
2023-04-08T06:45:22.714Z,19.59
2023-04-08T06:47:54.200Z,19.52
2023-04-08T06:50:25.274Z,19.47
2023-04-08T06:52:56.812Z,19.53
2023-04-08T06:55:28.209Z,19.57
2023-04-08T06:57:58.280Z,19.56
2023-04-08T07:00:29.524Z,19.56
2023-04-08T07:03:00.653Z,19.57
2023-04-08T07:05:30.920Z,19.56
2023-04-08T07:08:00.885Z,19.50
2023-04-08T07:10:31.126Z,19.50
2023-04-08T07:13:02.429Z,19.46
2023-04-08T07:15:33.753Z,19.50
2023-04-08T07:18:05.741Z,19.46
2023-04-08T07:20:41.698Z,19.45
2023-04-08T07:23:12.246Z,19.45
2023-04-08T07:25:42.219Z,19.40
2023-04-08T07:28:13.333Z,19.34
2023-04-08T07:30:44.309Z,19.26
2023-04-08T07:33:15.094Z,19.26
2023-04-08T07:35:46.050Z,19.24
2023-04-08T07:38:17.765Z,19.27
2023-04-08T07:40:47.964Z,19.32
2023-04-08T07:43:19.210Z,19.37
2023-04-08T07:45:49.791Z,19.39
2023-04-08T07:48:19.829Z,19.40
2023-04-08T07:51:08.303Z,19.42
2023-04-08T07:53:40.758Z,19.42
2023-04-08T07:56:20.311Z,19.43
2023-04-08T07:58:53.609Z,19.40
2023-04-08T08:01:25.205Z,19.39
2023-04-08T08:03:55.731Z,19.37
2023-04-08T08:06:27.100Z,19.39
2023-04-08T08:08:57.528Z,19.43
2023-04-08T08:11:31.529Z,19.42
2023-04-08T08:14:01.993Z,19.40
2023-04-08T08:16:33.350Z,19.42
2023-04-08T08:19:04.382Z,19.42
2023-04-08T08:21:34.683Z,19.36
2023-04-08T08:24:05.109Z,19.33
2023-04-08T08:26:42.311Z,19.30
2023-04-08T08:29:12.759Z,19.22
2023-04-08T08:31:42.882Z,19.26
2023-04-08T08:34:13.535Z,19.24
2023-04-08T08:36:43.548Z,19.23
2023-04-08T08:39:14.623Z,19.26
2023-04-08T08:41:45.987Z,19.22
2023-04-08T08:44:17.493Z,19.22
2023-04-08T08:46:50.158Z,19.24
2023-04-08T08:49:20.203Z,19.23
2023-04-08T08:51:52.725Z,19.24
2023-04-08T08:54:23.068Z,19.27
2023-04-08T08:56:53.178Z,19.22
2023-04-08T08:59:23.340Z,19.24
2023-04-08T09:01:56.250Z,19.29
2023-04-08T09:04:27.654Z,19.32
2023-04-08T09:07:47.692Z,19.40
2023-04-08T09:10:28.476Z,19.36
2023-04-08T09:12:59.929Z,19.34
2023-04-08T09:15:31.099Z,19.37
2023-04-08T09:18:02.207Z,19.33
2023-04-08T09:20:32.543Z,19.33
2023-04-08T09:23:05.057Z,19.33
2023-04-08T09:25:35.952Z,19.36
2023-04-08T09:28:06.958Z,19.30
2023-04-08T09:30:37.307Z,19.33
2023-04-08T09:33:08.796Z,19.24
2023-04-08T09:35:40.195Z,19.20
2023-04-08T09:38:10.456Z,19.19
2023-04-08T09:40:43.342Z,19.09
2023-04-08T09:43:18.541Z,19.08
2023-04-08T09:45:49.371Z,19.10
2023-04-08T09:48:26.803Z,19.06
2023-04-08T09:51:01.077Z,19.08
2023-04-08T09:53:40.698Z,19.15
2023-04-08T09:56:15.767Z,19.13
2023-04-08T09:58:59.731Z,19.18
2023-04-08T10:01:43.603Z,19.22
2023-04-08T10:04:20.427Z,19.22
2023-04-08T10:06:59.578Z,19.29
2023-04-08T10:09:32.280Z,19.30
2023-04-08T10:12:04.934Z,19.39
2023-04-08T10:14:35.334Z,19.40
2023-04-08T10:17:30.715Z,19.46
2023-04-08T10:20:01.932Z,19.47
2023-04-08T10:22:34.667Z,19.57
2023-04-08T10:25:33.112Z,19.62
2023-04-08T10:28:25.552Z,19.66
2023-04-08T10:30:59.147Z,19.71
2023-04-08T10:33:31.642Z,19.73
2023-04-08T10:36:16.527Z,19.78
2023-04-08T10:38:48.678Z,19.78
2023-04-08T10:41:26.377Z,19.81
2023-04-08T10:43:56.955Z,19.87
2023-04-08T10:46:30.074Z,19.97
2023-04-08T10:49:04.734Z,20.00
2023-04-08T10:51:37.593Z,20.11
2023-04-08T10:54:13.619Z,20.17
2023-04-08T10:56:54.959Z,20.21
2023-04-08T10:59:34.265Z,20.24
2023-04-08T11:02:05.644Z,20.31
2023-04-08T11:04:36.808Z,20.41
2023-04-08T11:07:11.133Z,20.42
2023-04-08T11:09:42.521Z,20.51
2023-04-08T11:12:13.214Z,20.55
2023-04-08T11:14:44.628Z,20.58
2023-04-08T11:17:17.770Z,20.62
2023-04-08T11:19:49.004Z,20.68
2023-04-08T11:22:20.190Z,20.69
2023-04-08T11:24:51.075Z,20.83
2023-04-08T11:27:23.908Z,20.92
2023-04-08T11:30:01.216Z,20.96
2023-04-08T11:32:33.224Z,21.06
2023-04-08T11:35:08.629Z,21.22
2023-04-08T11:37:59.652Z,21.22
2023-04-08T11:40:33.636Z,21.26
2023-04-08T11:43:13.175Z,21.48
2023-04-08T11:45:46.129Z,21.57
2023-04-08T11:48:23.280Z,21.74
2023-04-08T11:51:06.224Z,22.16
2023-04-08T11:53:38.816Z,22.57
2023-04-08T11:56:24.574Z,23.15
2023-04-08T11:58:55.578Z,23.57
2023-04-08T12:01:30.257Z,24.32
2023-04-08T12:04:04.832Z,24.04
2023-04-08T12:06:37.879Z,24.10
2023-04-08T12:09:10.761Z,23.69
2023-04-08T12:11:41.124Z,23.28
2023-04-08T12:14:14.017Z,23.23
2023-04-08T12:16:47.004Z,23.27
2023-04-08T12:19:23.850Z,23.24
2023-04-08T12:21:56.334Z,23.47
2023-04-08T12:24:28.129Z,23.30
2023-04-08T12:26:58.924Z,23.23
2023-04-08T12:29:29.335Z,23.33
2023-04-08T12:32:02.586Z,23.50
2023-04-08T12:34:34.817Z,23.57
2023-04-08T12:37:08.049Z,23.71
2023-04-08T12:39:39.187Z,23.78
2023-04-08T12:42:10.936Z,24.06
2023-04-08T12:44:42.871Z,24.04
2023-04-08T12:47:13.306Z,23.92
2023-04-08T12:49:49.523Z,24.04
2023-04-08T12:52:21.072Z,24.25
2023-04-08T12:54:53.989Z,24.16
2023-04-08T12:57:26.422Z,24.15
2023-04-08T12:59:58.090Z,24.10
2023-04-08T13:02:29.946Z,24.05
2023-04-08T13:05:01.267Z,24.04
2023-04-08T13:07:35.297Z,24.08
2023-04-08T13:10:08.771Z,24.06
2023-04-08T13:12:41.615Z,24.12
2023-04-08T13:15:14.829Z,24.04
2023-04-08T13:17:47.929Z,23.94
2023-04-08T13:20:20.856Z,24.02
2023-04-08T13:22:53.928Z,24.12
2023-04-08T13:25:25.895Z,24.13
2023-04-08T13:27:56.984Z,24.26
2023-04-08T13:30:28.987Z,24.41
2023-04-08T13:32:59.263Z,24.50
2023-04-08T13:35:30.676Z,24.59
2023-04-08T13:38:01.205Z,24.87
2023-04-08T13:40:32.605Z,25.00
2023-04-08T13:43:03.676Z,25.14
2023-04-08T13:45:35.801Z,24.91
2023-04-08T13:48:06.576Z,24.64
2023-04-08T13:50:40.419Z,24.41
2023-04-08T13:53:11.431Z,24.25
2023-04-08T13:55:44.310Z,24.33
2023-04-08T13:58:23.271Z,24.19
2023-04-08T14:00:53.835Z,24.10
2023-04-08T14:03:23.969Z,23.99
2023-04-08T14:05:56.644Z,24.09
2023-04-08T14:08:27.850Z,24.09
2023-04-08T14:10:59.831Z,24.20
2023-04-08T14:13:29.994Z,24.10
2023-04-08T14:16:04.340Z,24.16
2023-04-08T14:18:35.792Z,23.95
2023-04-08T14:21:06.817Z,23.92
2023-04-08T14:23:37.287Z,23.98
2023-04-08T14:26:08.926Z,24.06
2023-04-08T14:28:39.385Z,24.13
2023-04-08T14:31:10.164Z,24.12
2023-04-08T14:33:41.068Z,24.05
2023-04-08T14:36:13.030Z,24.05
2023-04-08T14:38:46.815Z,24.16
2023-04-08T14:41:18.732Z,24.19
2023-04-08T14:43:53.551Z,24.13
2023-04-08T14:46:27.290Z,24.25
2023-04-08T14:48:58.626Z,24.49
2023-04-08T14:51:28.517Z,24.32
2023-04-08T14:54:00.103Z,24.36
2023-04-08T14:56:30.822Z,24.53
2023-04-08T14:59:01.761Z,24.92
2023-04-08T15:01:34.901Z,24.87
2023-04-08T15:04:10.470Z,24.94
2023-04-08T15:06:44.328Z,24.95
2023-04-08T15:09:14.411Z,25.07
2023-04-08T15:11:45.654Z,25.24
2023-04-08T15:14:17.514Z,25.25
2023-04-08T15:16:49.040Z,25.32
2023-04-08T15:19:23.280Z,25.46
2023-04-08T15:21:53.476Z,25.35
2023-04-08T15:24:26.619Z,25.30
2023-04-08T15:26:58.692Z,25.38
2023-04-08T15:29:28.907Z,25.51
2023-04-08T15:31:59.989Z,25.79
2023-04-08T15:34:32.918Z,25.71
2023-04-08T15:37:05.591Z,25.46
2023-04-08T15:39:38.409Z,25.57
2023-04-08T15:42:10.504Z,25.69
2023-04-08T15:44:42.542Z,25.53
2023-04-08T15:47:13.220Z,25.58
2023-04-08T15:49:43.425Z,25.52
2023-04-08T15:52:13.704Z,25.53
2023-04-08T15:54:43.979Z,25.52
2023-04-08T15:57:16.274Z,25.59
2023-04-08T15:59:47.990Z,25.53
2023-04-08T16:02:20.028Z,25.48
2023-04-08T16:04:51.172Z,25.34
2023-04-08T16:07:23.381Z,25.37
2023-04-08T16:09:53.629Z,25.14
2023-04-08T16:12:24.394Z,25.15
2023-04-08T16:14:57.046Z,25.14
2023-04-08T16:17:28.278Z,25.24
2023-04-08T16:19:59.760Z,25.21
2023-04-08T16:22:30.753Z,25.10
2023-04-08T16:25:02.415Z,24.55
2023-04-08T16:27:33.532Z,24.28
2023-04-08T16:30:06.813Z,24.40
2023-04-08T16:32:37.530Z,24.44
2023-04-08T16:35:09.539Z,24.37
2023-04-08T16:37:39.795Z,24.08
2023-04-08T16:40:11.102Z,24.15
2023-04-08T16:42:42.000Z,24.09
2023-04-08T16:45:12.713Z,23.90
2023-04-08T16:47:44.665Z,23.76
2023-04-08T16:50:16.139Z,23.41
2023-04-08T16:52:50.925Z,23.28
2023-04-08T16:55:25.105Z,23.08
2023-04-08T16:57:57.947Z,22.99
2023-04-08T17:00:29.609Z,22.67
2023-04-08T17:03:00.645Z,22.67
2023-04-08T17:05:31.871Z,22.57
2023-04-08T17:08:06.431Z,22.43
2023-04-08T17:10:36.929Z,22.49
2023-04-08T17:13:07.073Z,22.62
2023-04-08T17:15:37.912Z,22.52
2023-04-08T17:18:08.535Z,22.46
2023-04-08T17:20:38.678Z,22.32
2023-04-08T17:23:09.749Z,22.23
2023-04-08T17:25:40.667Z,22.15
2023-04-08T17:28:11.712Z,22.12
2023-04-08T17:30:42.938Z,22.13
2023-04-08T17:33:13.321Z,22.08
2023-04-08T17:35:45.335Z,22.26
2023-04-08T17:38:15.759Z,22.42
2023-04-08T17:40:47.025Z,22.67
2023-04-08T17:43:17.294Z,22.64
2023-04-08T17:45:48.882Z,22.64
2023-04-08T17:48:20.096Z,23.15
2023-04-08T17:50:51.420Z,23.45
2023-04-08T17:53:22.840Z,23.51
2023-04-08T17:55:53.554Z,23.45
2023-04-08T17:58:24.275Z,23.61
2023-04-08T18:00:54.877Z,23.47
2023-04-08T18:03:25.124Z,23.25
2023-04-08T18:05:56.696Z,23.23
2023-04-08T18:08:27.903Z,23.33
2023-04-08T18:10:58.065Z,23.18
2023-04-08T18:13:28.091Z,23.38
2023-04-08T18:16:00.133Z,23.41
2023-04-08T18:18:30.310Z,23.15
2023-04-08T18:21:00.324Z,23.03
2023-04-08T18:23:31.267Z,23.07
2023-04-08T18:26:01.500Z,23.15
2023-04-08T18:28:31.735Z,23.18
2023-04-08T18:31:02.363Z,23.15
2023-04-08T18:33:33.393Z,23.18
2023-04-08T18:36:14.299Z,23.07
2023-04-08T18:38:46.714Z,23.14
2023-04-08T18:41:18.448Z,23.33
2023-04-08T18:43:50.043Z,23.41
2023-04-08T18:46:22.384Z,23.34
2023-04-08T18:48:53.364Z,23.47
2023-04-08T18:51:24.948Z,23.50
2023-04-08T18:53:55.214Z,23.34
2023-04-08T18:56:25.225Z,23.41
2023-04-08T18:58:57.049Z,23.40
2023-04-08T19:01:27.513Z,23.41
2023-04-08T19:03:57.738Z,23.31
2023-04-08T19:06:28.232Z,23.31
2023-04-08T19:08:59.101Z,23.35
2023-04-08T19:11:30.526Z,23.31
2023-04-08T19:14:01.383Z,23.28
2023-04-08T19:16:31.427Z,23.23
2023-04-08T19:19:01.961Z,23.27
2023-04-08T19:21:34.836Z,23.25
2023-04-08T19:24:08.944Z,23.25
2023-04-08T19:26:39.286Z,23.25
2023-04-08T19:29:11.154Z,23.30
2023-04-08T19:31:45.515Z,23.34
2023-04-08T19:34:17.564Z,23.35
2023-04-08T19:36:50.377Z,23.47
2023-04-08T19:39:21.370Z,23.50
2023-04-08T19:41:54.084Z,23.50
2023-04-08T19:44:26.120Z,23.50
2023-04-08T19:47:00.080Z,23.55
2023-04-08T19:49:34.190Z,23.53
2023-04-08T19:52:08.121Z,23.43
2023-04-08T19:54:39.794Z,23.45
2023-04-08T19:57:12.231Z,23.44
2023-04-08T19:59:42.481Z,23.44
2023-04-08T20:02:13.565Z,23.48
2023-04-08T20:04:46.657Z,23.47
2023-04-08T20:07:16.931Z,23.43
2023-04-08T20:09:47.172Z,23.37
2023-04-08T20:12:18.804Z,23.33
2023-04-08T20:14:49.995Z,23.33
2023-04-08T20:17:22.334Z,23.25
2023-04-08T20:19:54.405Z,23.28
2023-04-08T20:22:27.174Z,23.18
2023-04-08T20:25:00.256Z,23.14
2023-04-08T20:27:31.444Z,23.15
2023-04-08T20:30:03.352Z,23.08
2023-04-08T20:32:33.746Z,23.06
2023-04-08T20:35:05.626Z,23.04
2023-04-08T20:37:37.420Z,23.03
2023-04-08T20:40:11.686Z,22.84
2023-04-08T20:42:44.342Z,22.84
2023-04-08T20:45:17.175Z,22.84
2023-04-08T20:47:49.110Z,22.77
2023-04-08T20:50:19.450Z,22.67
2023-04-08T20:52:51.634Z,22.66
2023-04-08T20:55:22.156Z,22.72
2023-04-08T20:57:52.467Z,22.67
2023-04-08T21:00:23.197Z,22.62
2023-04-08T21:02:54.087Z,22.56
2023-04-08T21:05:24.323Z,22.57
2023-04-08T21:07:57.972Z,22.53
2023-04-08T21:10:28.283Z,22.51
2023-04-08T21:13:02.517Z,22.49
2023-04-08T21:15:36.182Z,22.49
2023-04-08T21:18:08.144Z,22.41
2023-04-08T21:20:41.824Z,22.42
2023-04-08T21:23:12.075Z,22.46
2023-04-08T21:25:42.336Z,22.38
2023-04-08T21:28:14.541Z,22.35
2023-04-08T21:30:45.738Z,22.42
2023-04-08T21:33:16.818Z,22.36
2023-04-08T21:35:48.259Z,22.36
2023-04-08T21:38:18.624Z,22.32
2023-04-08T21:40:48.592Z,22.31
2023-04-08T21:43:21.733Z,22.29
2023-04-08T21:45:54.880Z,22.29
2023-04-08T21:48:25.174Z,22.31
2023-04-08T21:50:55.269Z,22.26
2023-04-08T21:53:25.683Z,22.25
2023-04-08T21:55:58.419Z,22.16
2023-04-08T21:58:30.328Z,22.11
2023-04-08T22:01:03.970Z,22.08
2023-04-08T22:03:35.912Z,22.09
2023-04-08T22:08:40.974Z,22.05
2023-04-08T22:11:14.457Z,22.08
2023-04-08T22:13:47.462Z,22.06
2023-04-08T22:16:19.187Z,22.04
2023-04-08T22:18:50.603Z,22.02
2023-04-08T22:21:23.751Z,22.06
2023-04-08T22:23:55.117Z,22.06
2023-04-08T22:26:26.559Z,22.08
2023-04-08T22:28:57.908Z,22.06
2023-04-08T22:31:30.777Z,22.01
2023-04-08T22:34:02.111Z,22.01
2023-04-08T22:36:33.823Z,22.02
2023-04-08T22:39:04.248Z,22.06
2023-04-08T22:41:35.580Z,22.04
2023-04-08T22:44:05.657Z,22.02
2023-04-08T22:46:36.838Z,22.01
2023-04-08T22:49:08.676Z,22.01
2023-04-08T22:51:40.712Z,21.98
2023-04-08T22:54:11.135Z,21.97
2023-04-08T22:56:42.136Z,21.94
2023-04-08T22:59:15.318Z,21.90
2023-04-08T23:01:46.999Z,21.95
2023-04-08T23:04:18.270Z,21.95
2023-04-08T23:06:50.550Z,21.97
2023-04-08T23:09:23.382Z,21.95
2023-04-08T23:11:53.652Z,21.94
2023-04-08T23:14:25.939Z,21.92
2023-04-08T23:16:56.167Z,21.91
2023-04-08T23:19:28.793Z,21.90
2023-04-08T23:21:59.765Z,21.95
2023-04-08T23:24:29.769Z,21.88
2023-04-08T23:26:59.918Z,21.91
2023-04-08T23:29:30.458Z,21.92
2023-04-08T23:32:02.168Z,21.90
2023-04-08T23:34:32.573Z,21.88
2023-04-08T23:37:03.276Z,21.98
2023-04-08T23:39:42.339Z,22.01
2023-04-08T23:42:14.578Z,21.90
2023-04-08T23:44:45.969Z,21.77
2023-04-08T23:47:19.040Z,21.67
2023-04-08T23:49:51.933Z,21.58
2023-04-08T23:52:24.473Z,21.51
2023-04-08T23:54:54.973Z,21.54
2023-04-08T23:57:32.386Z,21.51
